Archival Weather

Downtown Manhattan/Wall St

New York, Downtown Manhattan/Wall St (KJRB)

Report from: Friday, February 23, 2024 5:56 AM EST
Current time: Wednesday, May 29, 2024 8:33 PM EDT

Current weather – Weather history – Daily summaries
Weather forecast

Temperature5.6°C (42.1°F)
Dew point3.9°C (39.0°F)
Winds Calm
Visibility9 mi. (14.5 km)
Clouds Ceiling: Overcast 11,000 ft. (3,353 m)
Altimeter29.55 in.Hg (1001 mB)
Precip. events Rain ended 10:14 AM
Relative humidity89 %
Density altitude-587 ft. (-179 m)
Sea-level pressure100.1 kPa (1001 mB, 29.55 in.Hg)
Remarks Fully automated report
System requires maintenance
Automated weather observing station with precipitation discriminator
Precipitation sensor not operating
Flight conditions Visual Meteorological Conditions
Raw dataKJRB 231056Z AUTO 00000KT 9SM OVC110 06/04 A2955 RMK AO2 RAE14 SLP007 T00560039 PNO $
An error has occurred. This application may no longer respond until reloaded. Reload 🗙